Time;durP1;ratioP1;P1;durP2;ratioP2;P2;SDS_P1;SDS_P2;PMS_P1;PMS_P2;Temp;Humidity;BMP_temperature;BMP_pressure;BME280_temperature;BME280_humidity;BME280_pressure;Samples;Min_cycle;Max_cycle;Signal;HPM_P1;HPM_P2
2023/06/19 00:01:06;;;;;;;;;6.00;6.00;;;;;;;;5058382;28;47364;-75
2023/06/19 00:03:31;;;;;;;;;11.67;11.00;;;;;;;;5059864;28;45252;-76
2023/06/19 00:05:56;;;;;;;;;8.33;8.33;;;;;;;;5058431;28;45464;-75
2023/06/19 00:08:21;;;;;;;;;9.33;8.33;;;;;;;;5059798;28;45216;-75
2023/06/19 00:10:47;;;;;;;;;8.67;8.00;;;;;;;;5059306;28;45370;-75
2023/06/19 00:13:12;;;;;;;;;10.67;10.00;;;;;;;;5058162;28;45894;-75
2023/06/19 00:15:38;;;;;;;;;10.33;10.33;;;;;;;;5059730;28;45208;-75
2023/06/19 00:18:04;;;;;;;;;11.67;11.00;;;;;;;;5058199;28;46547;-75
2023/06/19 00:20:29;;;;;;;;;10.33;9.33;;;;;;;;5059509;28;45341;-75
2023/06/19 00:22:54;;;;;;;;;5.33;5.33;;;;;;;;5058112;28;45291;-75
2023/06/19 00:25:20;;;;;;;;;11.33;9.33;;;;;;;;5058440;28;45542;-75
2023/06/19 00:27:46;;;;;;;;;10.33;10.00;;;;;;;;5059551;28;45291;-75
2023/06/19 00:30:11;;;;;;;;;11.67;11.67;;;;;;;;5057739;28;47481;-76
2023/06/19 00:32:46;;;;;;;;;12.33;12.00;;;;;;;;5058071;28;45321;-75
2023/06/19 00:35:12;;;;;;;;;11.00;10.67;;;;;;;;5059736;28;45383;-75
2023/06/19 00:37:37;;;;;;;;;11.33;11.33;;;;;;;;5059230;28;45332;-75
2023/06/19 00:40:02;;;;;;;;;10.33;10.33;;;;;;;;5059440;28;45368;-75
2023/06/19 00:42:27;;;;;;;;;10.00;10.00;;;;;;;;5057707;28;46026;-75
2023/06/19 00:44:52;;;;;;;;;10.00;10.00;;;;;;;;5059402;28;45418;-75
2023/06/19 00:47:18;;;;;;;;;10.00;10.00;;;;;;;;5059359;28;45201;-75
2023/06/19 00:49:43;;;;;;;;;9.67;9.67;;;;;;;;5057878;28;45444;-74
2023/06/19 00:52:08;;;;;;;;;11.00;10.00;;;;;;;;5059246;28;45195;-75
2023/06/19 00:54:34;;;;;;;;;9.00;9.00;;;;;;;;5057972;28;45248;-75
2023/06/19 00:56:59;;;;;;;;;6.00;6.00;;;;;;;;5057733;28;47103;-75
2023/06/19 00:59:25;;;;;;;;;10.00;10.00;;;;;;;;5057623;28;47079;-75
2023/06/19 01:01:50;;;;;;;;;11.00;11.00;;;;;;;;5059162;28;45346;-76
2023/06/19 01:04:15;;;;;;;;;7.33;7.33;;;;;;;;5057749;28;45465;-75
2023/06/19 01:06:50;;;;;;;;;11.67;10.67;;;;;;;;5057532;28;46975;-75
2023/06/19 01:09:16;;;;;;;;;8.33;8.33;;;;;;;;5061330;28;45352;-75
2023/06/19 01:11:50;;;;;;;;;11.00;10.00;;;;;;;;5062358;28;45349;-75
2023/06/19 01:14:21;;;;;;;;;10.00;10.00;;;;;;;;5061008;28;45315;-75
2023/06/19 01:16:47;;;;;;;;;10.00;9.67;;;;;;;;5062151;28;45312;-75
2023/06/19 01:19:15;;;;;;;;;9.33;9.00;;;;;;;;5062311;28;45946;-76
2023/06/19 01:21:41;;;;;;;;;11.33;11.33;;;;;;;;5060877;28;45188;-75
2023/06/19 01:24:07;;;;;;;;;10.00;10.00;;;;;;;;5060918;28;45370;-76
2023/06/19 01:26:32;;;;;;;;;11.00;11.00;;;;;;;;5062244;28;45403;-75
2023/06/19 01:28:57;;;;;;;;;11.67;11.67;;;;;;;;5061837;28;45338;-75
2023/06/19 01:31:33;;;;;;;;;12.67;10.67;;;;;;;;5062197;28;45349;-75
2023/06/19 01:33:59;;;;;;;;;10.67;10.67;;;;;;;;5062415;28;45421;-75
2023/06/19 01:36:24;;;;;;;;;9.33;9.33;;;;;;;;5061963;28;45346;-75
2023/06/19 01:38:50;;;;;;;;;11.33;10.33;;;;;;;;5060524;28;46885;-75
2023/06/19 01:41:16;;;;;;;;;11.33;11.33;;;;;;;;5061903;28;45237;-75
2023/06/19 01:43:42;;;;;;;;;10.67;10.33;;;;;;;;5061930;28;45302;-75
2023/06/19 01:46:07;;;;;;;;;10.00;10.00;;;;;;;;5060607;28;46030;-75
2023/06/19 01:48:34;;;;;;;;;12.33;12.00;;;;;;;;5061919;28;45767;-75
2023/06/19 01:50:59;;;;;;;;;12.00;12.00;;;;;;;;5061936;28;45145;-75
2023/06/19 01:53:24;;;;;;;;;9.67;8.00;;;;;;;;5061964;28;45260;-75
2023/06/19 01:55:50;;;;;;;;;9.67;9.67;;;;;;;;5061766;28;45261;-75
2023/06/19 01:58:15;;;;;;;;;13.00;12.67;;;;;;;;5060208;28;47199;-75
2023/06/19 02:00:40;;;;;;;;;9.67;9.67;;;;;;;;5061561;28;45253;-75
2023/06/19 02:03:05;;;;;;;;;13.00;12.33;;;;;;;;5060417;28;45403;-75
2023/06/19 02:05:31;;;;;;;;;14.67;12.00;;;;;;;;5061446;28;45419;-75
2023/06/19 02:07:56;;;;;;;;;13.00;11.67;;;;;;;;5061543;28;46054;-75
2023/06/19 02:10:22;;;;;;;;;11.67;10.00;;;;;;;;5061693;28;45303;-75
2023/06/19 02:12:47;;;;;;;;;12.67;12.00;;;;;;;;5061713;28;45309;-75
2023/06/19 02:15:12;;;;;;;;;13.00;12.67;;;;;;;;5061343;28;45454;-75
2023/06/19 02:17:37;;;;;;;;;10.00;9.00;;;;;;;;5059986;28;48287;-75
2023/06/19 02:20:05;;;;;;;;;13.00;13.00;;;;;;;;5060234;28;45361;-75
2023/06/19 02:22:30;;;;;;;;;10.00;10.00;;;;;;;;5061406;28;45382;-75
2023/06/19 02:24:55;;;;;;;;;12.00;12.00;;;;;;;;5061334;28;45252;-75
2023/06/19 02:27:21;;;;;;;;;13.33;12.00;;;;;;;;5061289;28;45361;-75
2023/06/19 02:29:46;;;;;;;;;13.00;13.00;;;;;;;;5061011;28;45261;-75
2023/06/19 02:32:11;;;;;;;;;13.33;13.33;;;;;;;;5061382;28;45314;-75
2023/06/19 02:34:36;;;;;;;;;12.33;11.33;;;;;;;;5059780;28;45597;-75
2023/06/19 02:37:01;;;;;;;;;13.33;12.33;;;;;;;;5060773;28;45482;-75
2023/06/19 02:39:27;;;;;;;;;16.67;15.67;;;;;;;;5061047;28;45235;-75
2023/06/19 02:41:52;;;;;;;;;15.67;13.67;;;;;;;;5059693;28;45497;-75
2023/06/19 02:44:17;;;;;;;;;14.67;14.00;;;;;;;;5060823;28;45410;-75
2023/06/19 02:46:42;;;;;;;;;14.00;14.00;;;;;;;;5061141;28;45318;-75
2023/06/19 02:49:08;;;;;;;;;17.33;15.33;;;;;;;;5059575;28;45281;-75
2023/06/19 02:51:33;;;;;;;;;15.33;14.33;;;;;;;;5061042;28;45314;-76
2023/06/19 02:53:58;;;;;;;;;14.67;13.67;;;;;;;;5060969;28;45133;-75
2023/06/19 02:56:24;;;;;;;;;20.00;17.00;;;;;;;;5060868;28;46196;-75
2023/06/19 02:58:49;;;;;;;;;15.33;15.33;;;;;;;;5060470;28;45212;-75
2023/06/19 03:01:14;;;;;;;;;12.00;12.00;;;;;;;;5060974;28;45184;-75
2023/06/19 03:03:40;;;;;;;;;14.00;14.00;;;;;;;;5059446;28;45924;-75
2023/06/19 03:06:06;;;;;;;;;17.00;17.00;;;;;;;;5059204;28;48177;-75
2023/06/19 03:08:35;;;;;;;;;13.67;13.67;;;;;;;;5060470;28;45264;-75
2023/06/19 03:11:00;;;;;;;;;16.33;14.67;;;;;;;;5060911;28;45379;-74
2023/06/19 03:13:25;;;;;;;;;13.33;13.33;;;;;;;;5060482;28;45436;-75
2023/06/19 03:15:50;;;;;;;;;13.33;13.33;;;;;;;;5060359;28;45306;-75
2023/06/19 03:18:16;;;;;;;;;15.33;15.33;;;;;;;;5060441;28;45327;-75
2023/06/19 03:20:41;;;;;;;;;13.67;13.33;;;;;;;;5059448;28;45377;-75
2023/06/19 03:23:06;;;;;;;;;13.33;13.00;;;;;;;;5060411;28;45329;-74
2023/06/19 03:25:34;;;;;;;;;12.67;11.33;;;;;;;;5060237;28;45786;-75
2023/06/19 03:28:00;;;;;;;;;14.33;14.33;;;;;;;;5060409;28;45353;-75
2023/06/19 03:30:25;;;;;;;;;15.33;14.67;;;;;;;;5059894;28;45331;-75
2023/06/19 03:32:50;;;;;;;;;16.33;16.00;;;;;;;;5060065;28;45372;-75
2023/06/19 03:35:15;;;;;;;;;15.33;15.33;;;;;;;;5058622;28;48241;-76
2023/06/19 03:37:41;;;;;;;;;15.00;15.00;;;;;;;;5059857;28;45449;-75
2023/06/19 03:40:08;;;;;;;;;17.33;16.33;;;;;;;;5059162;28;45344;-75
2023/06/19 03:42:34;;;;;;;;;18.00;18.00;;;;;;;;5059759;28;45358;-75
2023/06/19 03:44:59;;;;;;;;;16.67;15.67;;;;;;;;5059695;28;45364;-75
2023/06/19 03:47:25;;;;;;;;;15.67;14.33;;;;;;;;5060044;28;45254;-75
2023/06/19 03:49:50;;;;;;;;;15.33;15.33;;;;;;;;5058822;28;45366;-75
2023/06/19 03:52:15;;;;;;;;;18.00;15.00;;;;;;;;5059930;28;45314;-75
2023/06/19 03:54:41;;;;;;;;;18.33;18.00;;;;;;;;5058595;28;48937;-75
2023/06/19 03:57:08;;;;;;;;;16.67;16.67;;;;;;;;5059764;28;45441;-75
2023/06/19 03:59:33;;;;;;;;;19.00;17.33;;;;;;;;5059872;28;45244;-75
2023/06/19 04:01:58;;;;;;;;;16.33;16.00;;;;;;;;5059884;28;45223;-75
2023/06/19 04:04:24;;;;;;;;;16.00;16.00;;;;;;;;5059643;28;45328;-75
2023/06/19 04:06:49;;;;;;;;;16.00;15.00;;;;;;;;5059923;28;45589;-75
2023/06/19 04:09:14;;;;;;;;;15.33;15.33;;;;;;;;5059921;28;45256;-75
2023/06/19 04:11:39;;;;;;;;;15.00;15.00;;;;;;;;5058264;28;45343;-75
2023/06/19 04:14:05;;;;;;;;;18.00;18.00;;;;;;;;5059437;28;46227;-75
2023/06/19 04:16:30;;;;;;;;;18.33;17.00;;;;;;;;5059769;28;45315;-75
2023/06/19 04:18:55;;;;;;;;;19.00;17.33;;;;;;;;5059847;28;45327;-74
2023/06/19 04:21:20;;;;;;;;;16.67;13.33;;;;;;;;5058922;28;45217;-75
2023/06/19 04:23:46;;;;;;;;;17.00;17.00;;;;;;;;5059186;28;45272;-75
2023/06/19 04:26:11;;;;;;;;;13.33;13.33;;;;;;;;5059558;28;45354;-75
2023/06/19 04:28:36;;;;;;;;;19.00;18.33;;;;;;;;5059526;28;45305;-76
2023/06/19 04:31:01;;;;;;;;;18.00;16.67;;;;;;;;5059494;28;45221;-75
2023/06/19 04:33:27;;;;;;;;;16.00;13.67;;;;;;;;5059445;28;45401;-75
2023/06/19 04:35:52;;;;;;;;;18.33;17.67;;;;;;;;5059257;28;45274;-74
2023/06/19 04:38:17;;;;;;;;;15.33;15.33;;;;;;;;5059428;28;45307;-74
2023/06/19 04:40:43;;;;;;;;;15.33;15.33;;;;;;;;5059533;28;45263;-74
2023/06/19 04:43:08;;;;;;;;;15.67;15.00;;;;;;;;5059824;28;45332;-75
2023/06/19 04:45:33;;;;;;;;;16.67;16.67;;;;;;;;5062725;28;45365;-75
2023/06/19 04:48:02;;;;;;;;;16.00;15.00;;;;;;;;5063169;28;45343;-75
2023/06/19 04:50:27;;;;;;;;;17.33;17.33;;;;;;;;5062742;28;45268;-75
2023/06/19 04:52:53;;;;;;;;;15.33;15.33;;;;;;;;5062883;28;45356;-75
2023/06/19 04:55:18;;;;;;;;;20.67;18.00;;;;;;;;5062662;28;45335;-75
2023/06/19 04:57:43;;;;;;;;;16.00;16.00;;;;;;;;5062981;28;45149;-74
2023/06/19 05:00:12;;;;;;;;;19.67;19.00;;;;;;;;5062541;28;45494;-75
2023/06/19 05:02:38;;;;;;;;;13.67;13.67;;;;;;;;5062613;28;45345;-75
2023/06/19 05:05:03;;;;;;;;;22.67;20.33;;;;;;;;5062518;28;45465;-75
2023/06/19 05:07:29;;;;;;;;;20.00;20.00;;;;;;;;5062859;28;45312;-75
2023/06/19 05:09:55;;;;;;;;;20.00;19.33;;;;;;;;5062568;28;45489;-75
2023/06/19 05:12:20;;;;;;;;;16.67;16.67;;;;;;;;5062202;28;46051;-75
2023/06/19 05:14:45;;;;;;;;;20.00;18.33;;;;;;;;5057334;28;45454;-75
2023/06/19 05:17:10;;;;;;;;;17.67;17.67;;;;;;;;5042445;28;45603;-74
2023/06/19 05:19:36;;;;;;;;;19.00;19.00;;;;;;;;5042368;28;45248;-75
2023/06/19 05:22:01;;;;;;;;;16.00;16.00;;;;;;;;5042087;28;46078;-75
2023/06/19 05:24:26;;;;;;;;;17.33;17.33;;;;;;;;5041931;28;45329;-74
2023/06/19 05:26:51;;;;;;;;;19.00;19.00;;;;;;;;5049169;28;45285;-76
2023/06/19 05:29:16;;;;;;;;;20.00;19.00;;;;;;;;5053056;28;45299;-75
2023/06/19 05:31:42;;;;;;;;;18.33;17.67;;;;;;;;5050239;28;45265;-75
2023/06/19 05:34:07;;;;;;;;;17.33;16.67;;;;;;;;5042042;28;45481;-73
2023/06/19 05:36:32;;;;;;;;;20.00;20.00;;;;;;;;5042188;28;45331;-73
2023/06/19 05:38:57;;;;;;;;;17.33;17.33;;;;;;;;5041637;28;45541;-75
2023/06/19 05:41:22;;;;;;;;;18.00;18.00;;;;;;;;5041672;28;45314;-75
2023/06/19 05:43:48;;;;;;;;;18.00;18.00;;;;;;;;5041445;28;45284;-74
2023/06/19 05:46:13;;;;;;;;;19.33;19.00;;;;;;;;5042069;28;45596;-75
2023/06/19 05:48:38;;;;;;;;;19.67;17.67;;;;;;;;5042399;28;45252;-75
2023/06/19 05:51:03;;;;;;;;;16.00;16.00;;;;;;;;5043478;28;45205;-75
2023/06/19 05:53:30;;;;;;;;;22.00;19.00;;;;;;;;5044047;28;45141;-74
2023/06/19 05:55:56;;;;;;;;;23.67;21.67;;;;;;;;5044632;28;45484;-75
2023/06/19 05:58:21;;;;;;;;;19.33;18.00;;;;;;;;5064580;28;45212;-75
2023/06/19 06:00:47;;;;;;;;;21.67;20.67;;;;;;;;5061650;28;45556;-74
2023/06/19 06:03:13;;;;;;;;;18.00;17.33;;;;;;;;5061582;28;45326;-74
2023/06/19 06:05:38;;;;;;;;;20.33;20.33;;;;;;;;5061559;28;45398;-75
2023/06/19 06:08:03;;;;;;;;;25.00;21.33;;;;;;;;5061035;28;45397;-74
2023/06/19 06:10:28;;;;;;;;;23.00;21.67;;;;;;;;5061188;28;46663;-75
2023/06/19 06:12:54;;;;;;;;;24.00;23.67;;;;;;;;5061522;28;45378;-74
2023/06/19 06:15:19;;;;;;;;;13.00;13.00;;;;;;;;5061353;28;45441;-75
2023/06/19 06:17:44;;;;;;;;;19.67;16.67;;;;;;;;5061063;28;45465;-74
2023/06/19 06:20:11;;;;;;;;;19.00;19.00;;;;;;;;5061283;28;46292;-73
2023/06/19 06:22:37;;;;;;;;;16.00;16.00;;;;;;;;5061379;28;45343;-74
2023/06/19 06:25:02;;;;;;;;;22.67;21.67;;;;;;;;5061507;28;45335;-74
2023/06/19 06:27:27;;;;;;;;;22.67;22.67;;;;;;;;5061270;28;45486;-74
2023/06/19 06:29:52;;;;;;;;;24.00;24.00;;;;;;;;5056687;28;45240;-74
2023/06/19 06:32:18;;;;;;;;;18.00;16.67;;;;;;;;5056359;28;45379;-74
2023/06/19 06:34:43;;;;;;;;;22.00;21.00;;;;;;;;5060998;28;45338;-74
2023/06/19 06:37:09;;;;;;;;;22.33;22.33;;;;;;;;5060782;28;45411;-74
2023/06/19 06:39:34;;;;;;;;;19.67;18.67;;;;;;;;5060698;28;45353;-74
2023/06/19 06:41:59;;;;;;;;;20.00;20.00;;;;;;;;5060837;28;45342;-74
2023/06/19 06:44:24;;;;;;;;;23.67;23.67;;;;;;;;5060739;28;45252;-74
2023/06/19 06:46:49;;;;;;;;;23.33;22.00;;;;;;;;5059216;28;47218;-74
2023/06/19 06:49:16;;;;;;;;;22.33;22.33;;;;;;;;5060567;28;45382;-74
2023/06/19 06:51:41;;;;;;;;;21.00;20.33;;;;;;;;5060413;28;45207;-75
2023/06/19 06:54:07;;;;;;;;;24.00;24.00;;;;;;;;5060943;28;45191;-75
2023/06/19 06:56:32;;;;;;;;;19.67;19.67;;;;;;;;5058590;28;45383;-74
2023/06/19 06:58:57;;;;;;;;;24.33;23.67;;;;;;;;5060204;28;46285;-75
2023/06/19 07:01:22;;;;;;;;;21.00;19.33;;;;;;;;5059394;28;45461;-74
2023/06/19 07:03:47;;;;;;;;;28.00;25.33;;;;;;;;5060620;28;45269;-74
2023/06/19 07:06:12;;;;;;;;;24.00;22.67;;;;;;;;5059433;28;45208;-73
2023/06/19 07:08:40;;;;;;;;;19.00;19.00;;;;;;;;5059927;28;45413;-74
2023/06/19 07:11:05;;;;;;;;;25.33;24.67;;;;;;;;5059319;28;45322;-74
2023/06/19 07:13:31;;;;;;;;;30.33;28.00;;;;;;;;5060291;28;45456;-74
2023/06/19 07:15:58;;;;;;;;;24.67;24.67;;;;;;;;5060187;28;45437;-73
2023/06/19 07:18:23;;;;;;;;;30.33;28.33;;;;;;;;5061103;28;46529;-74
2023/06/19 07:20:48;;;;;;;;;26.67;24.67;;;;;;;;5059942;28;45145;-73
2023/06/19 07:23:14;;;;;;;;;25.67;24.33;;;;;;;;5060362;28;45219;-73
2023/06/19 07:25:39;;;;;;;;;23.67;22.00;;;;;;;;5060234;28;45311;-74
2023/06/19 07:28:04;;;;;;;;;28.33;26.33;;;;;;;;5059714;28;45265;-74
2023/06/19 07:30:30;;;;;;;;;27.00;26.67;;;;;;;;5059480;28;45263;-74
2023/06/19 07:32:55;;;;;;;;;25.00;24.00;;;;;;;;5060412;28;45516;-74
2023/06/19 07:35:20;;;;;;;;;24.67;24.00;;;;;;;;5060076;28;45395;-74
2023/06/19 07:37:46;;;;;;;;;25.33;24.00;;;;;;;;5059956;28;45390;-74
2023/06/19 07:40:11;;;;;;;;;27.00;26.67;;;;;;;;5059704;28;45479;-74
2023/06/19 07:42:37;;;;;;;;;22.33;22.33;;;;;;;;5059006;28;45399;-75
2023/06/19 07:45:02;;;;;;;;;23.33;23.00;;;;;;;;5059413;28;45365;-74
2023/06/19 07:47:27;;;;;;;;;25.00;25.00;;;;;;;;5059997;28;45457;-74
2023/06/19 07:49:52;;;;;;;;;24.67;22.00;;;;;;;;5059728;28;45256;-74
2023/06/19 07:52:18;;;;;;;;;25.00;23.67;;;;;;;;5059707;28;45382;-75
2023/06/19 07:54:53;;;;;;;;;21.67;20.00;;;;;;;;5059711;28;45607;-75
2023/06/19 07:57:18;;;;;;;;;20.00;19.00;;;;;;;;5059582;28;46036;-74
2023/06/19 07:59:44;;;;;;;;;28.00;27.00;;;;;;;;5059322;28;45260;-74
2023/06/19 08:02:10;;;;;;;;;22.00;22.00;;;;;;;;5058347;28;45388;-74
2023/06/19 08:04:35;;;;;;;;;24.00;24.00;;;;;;;;5059799;28;45501;-74
2023/06/19 08:07:00;;;;;;;;;24.67;22.67;;;;;;;;5058952;28;46093;-74
2023/06/19 08:09:25;;;;;;;;;22.67;21.33;;;;;;;;5059103;28;45366;-74
2023/06/19 08:11:50;;;;;;;;;22.33;22.33;;;;;;;;5057575;28;45385;-74
2023/06/19 08:14:16;;;;;;;;;19.33;19.33;;;;;;;;5058523;28;45496;-74
2023/06/19 08:16:41;;;;;;;;;23.00;22.00;;;;;;;;5059170;28;45403;-75
2023/06/19 08:19:06;;;;;;;;;24.67;24.33;;;;;;;;5059152;28;45378;-74
2023/06/19 08:21:31;;;;;;;;;22.00;22.00;;;;;;;;5059147;28;45446;-74
2023/06/19 08:23:56;;;;;;;;;24.00;24.00;;;;;;;;5059370;28;45275;-75
2023/06/19 08:26:22;;;;;;;;;21.67;18.67;;;;;;;;5059513;28;45383;-74
2023/06/19 08:28:47;;;;;;;;;21.00;21.00;;;;;;;;5059402;28;45547;-74
2023/06/19 08:31:12;;;;;;;;;21.67;21.33;;;;;;;;5059624;28;45257;-75
2023/06/19 08:33:38;;;;;;;;;16.67;16.00;;;;;;;;5059459;28;45481;-74
2023/06/19 08:36:03;;;;;;;;;24.00;21.67;;;;;;;;5059327;28;46472;-73
2023/06/19 08:38:28;;;;;;;;;27.33;26.33;;;;;;;;5062424;28;45546;-74
2023/06/19 08:40:55;;;;;;;;;19.67;17.67;;;;;;;;5062370;28;45311;-74
2023/06/19 08:43:20;;;;;;;;;22.67;19.33;;;;;;;;5059824;28;45331;-74
2023/06/19 08:46:15;;;;;;;;;18.33;16.67;;;;;;;;5059585;28;46118;-73
2023/06/19 08:48:41;;;;;;;;;17.67;17.33;;;;;;;;5058468;28;45339;-75
2023/06/19 08:51:06;;;;;;;;;18.00;17.00;;;;;;;;5061192;28;45361;-74
2023/06/19 08:53:33;;;;;;;;;15.33;15.00;;;;;;;;5059460;28;45285;-74
2023/06/19 08:55:58;;;;;;;;;17.67;17.67;;;;;;;;5059291;28;46352;-74
2023/06/19 08:58:24;;;;;;;;;20.33;19.67;;;;;;;;5059664;28;45410;-74
2023/06/19 09:00:49;;;;;;;;;15.33;15.00;;;;;;;;5059542;28;45318;-74
2023/06/19 09:03:19;;;;;;;;;17.00;16.33;;;;;;;;5059238;28;45237;-74
2023/06/19 09:05:49;;;;;;;;;17.33;17.33;;;;;;;;5059605;28;45397;-74
2023/06/19 09:08:15;;;;;;;;;17.00;15.00;;;;;;;;5059964;28;45341;-74
2023/06/19 09:10:41;;;;;;;;;18.00;16.67;;;;;;;;5059416;28;45362;-74
2023/06/19 09:13:07;;;;;;;;;17.33;17.33;;;;;;;;5059148;28;45417;-74
2023/06/19 09:15:34;;;;;;;;;16.67;16.67;;;;;;;;5058761;28;45313;-74
2023/06/19 09:18:09;;;;;;;;;16.67;15.00;;;;;;;;5058974;28;45291;-73
2023/06/19 09:20:38;;;;;;;;;17.33;17.33;;;;;;;;5058957;28;45173;-74
2023/06/19 09:23:04;;;;;;;;;14.67;14.67;;;;;;;;5058811;28;45390;-74
2023/06/19 09:25:29;;;;;;;;;17.00;17.00;;;;;;;;5058859;28;46477;-74
2023/06/19 09:27:55;;;;;;;;;16.67;16.67;;;;;;;;5058755;28;45307;-74
2023/06/19 09:30:20;;;;;;;;;15.33;15.33;;;;;;;;5061146;28;45321;-74
2023/06/19 09:32:45;;;;;;;;;14.67;14.67;;;;;;;;5062359;28;45354;-74
2023/06/19 09:35:11;;;;;;;;;14.33;14.33;;;;;;;;5062031;28;45314;-74
2023/06/19 09:37:38;;;;;;;;;14.00;14.00;;;;;;;;5061983;28;45275;-75
2023/06/19 09:40:10;;;;;;;;;21.00;20.00;;;;;;;;5062337;28;45292;-74
2023/06/19 09:42:36;;;;;;;;;18.00;18.00;;;;;;;;5061767;28;45716;-74
2023/06/19 09:45:06;;;;;;;;;14.33;14.33;;;;;;;;5061716;28;45414;-74
2023/06/19 09:47:35;;;;;;;;;18.00;17.00;;;;;;;;5062059;28;45299;-74
2023/06/19 09:50:01;;;;;;;;;16.67;16.67;;;;;;;;5062214;28;45386;-74
2023/06/19 09:52:27;;;;;;;;;19.00;16.67;;;;;;;;5061743;28;45457;-74
2023/06/19 09:54:54;;;;;;;;;18.33;18.33;;;;;;;;5061979;28;45395;-74
2023/06/19 09:57:19;;;;;;;;;19.67;17.67;;;;;;;;5061964;28;45380;-74
2023/06/19 09:59:49;;;;;;;;;19.00;19.00;;;;;;;;5058913;28;45238;-73
2023/06/19 10:02:15;;;;;;;;;12.00;12.00;;;;;;;;5061598;28;45328;-73
2023/06/19 10:04:47;;;;;;;;;16.00;16.00;;;;;;;;5059782;28;46142;-73
2023/06/19 10:07:22;;;;;;;;;14.33;14.33;;;;;;;;5061548;28;45342;-74
2023/06/19 10:09:58;;;;;;;;;14.00;14.00;;;;;;;;5061626;28;45296;-73
2023/06/19 10:12:33;;;;;;;;;15.67;13.33;;;;;;;;5061135;28;45345;-73
2023/06/19 10:15:07;;;;;;;;;16.00;15.00;;;;;;;;5061413;28;45571;-73
2023/06/19 10:17:32;;;;;;;;;13.33;13.00;;;;;;;;5061656;28;45367;-73
2023/06/19 10:19:57;;;;;;;;;18.00;17.33;;;;;;;;5061589;28;45350;-74
2023/06/19 10:22:22;;;;;;;;;13.00;13.00;;;;;;;;5061376;28;45551;-75
2023/06/19 10:24:50;;;;;;;;;13.00;13.00;;;;;;;;5061353;28;45298;-74
2023/06/19 10:27:21;;;;;;;;;12.67;12.33;;;;;;;;5061513;28;45331;-74
2023/06/19 10:29:51;;;;;;;;;13.33;13.33;;;;;;;;5061180;28;45268;-74
2023/06/19 10:32:16;;;;;;;;;14.00;14.00;;;;;;;;5061273;28;45293;-74
2023/06/19 10:34:45;;;;;;;;;14.33;14.33;;;;;;;;5061187;28;45322;-73
2023/06/19 10:37:10;;;;;;;;;14.00;14.00;;;;;;;;5060757;28;45375;-74
2023/06/19 10:39:35;;;;;;;;;15.67;15.67;;;;;;;;5061443;28;45251;-74
2023/06/19 10:42:04;;;;;;;;;13.00;13.00;;;;;;;;5059877;28;45305;-74
2023/06/19 10:44:29;;;;;;;;;13.00;12.67;;;;;;;;5060760;28;46308;-74
2023/06/19 10:46:55;;;;;;;;;17.33;16.00;;;;;;;;5061046;28;45291;-74
2023/06/19 10:49:20;;;;;;;;;13.67;12.00;;;;;;;;5061178;28;45580;-74
2023/06/19 10:51:48;;;;;;;;;18.33;16.00;;;;;;;;5060900;28;45301;-75
2023/06/19 10:54:13;;;;;;;;;15.67;15.67;;;;;;;;5059507;28;48310;-74
2023/06/19 10:56:38;;;;;;;;;16.00;16.00;;;;;;;;5060927;28;45251;-75
2023/06/19 10:59:14;;;;;;;;;14.67;14.67;;;;;;;;5061002;28;45312;-75
2023/06/19 11:01:44;;;;;;;;;14.00;14.00;;;;;;;;5060993;28;45299;-73
2023/06/19 11:04:10;;;;;;;;;14.67;14.67;;;;;;;;5060660;28;46062;-75
2023/06/19 11:06:35;;;;;;;;;14.00;14.00;;;;;;;;5060603;28;45244;-73
2023/06/19 11:09:02;;;;;;;;;14.67;14.67;;;;;;;;5061032;28;45302;-74
2023/06/19 11:11:36;;;;;;;;;10.33;10.33;;;;;;;;5060680;28;45394;-75
2023/06/19 11:14:02;;;;;;;;;13.00;12.00;;;;;;;;5060408;28;46224;-75
2023/06/19 11:16:27;;;;;;;;;12.00;12.00;;;;;;;;5060620;28;45291;-75
2023/06/19 11:19:02;;;;;;;;;13.67;13.67;;;;;;;;5060879;28;45350;-75
2023/06/19 11:21:34;;;;;;;;;11.33;11.00;;;;;;;;5060387;28;45283;-74
2023/06/19 11:24:00;;;;;;;;;11.00;11.00;;;;;;;;5060350;28;45294;-74
2023/06/19 11:26:25;;;;;;;;;11.00;10.67;;;;;;;;5060473;28;45314;-74
2023/06/19 11:28:51;;;;;;;;;10.00;10.00;;;;;;;;5060121;28;45291;-74
2023/06/19 11:31:16;;;;;;;;;11.00;11.00;;;;;;;;5058923;28;47264;-74
2023/06/19 11:33:42;;;;;;;;;11.33;10.00;;;;;;;;5058754;28;45327;-75
2023/06/19 11:36:08;;;;;;;;;14.67;11.67;;;;;;;;5058618;28;45568;-75
2023/06/19 11:38:35;;;;;;;;;13.00;11.67;;;;;;;;5058791;28;45374;-74
2023/06/19 11:41:02;;;;;;;;;9.00;9.00;;;;;;;;5058725;28;45327;-74
2023/06/19 11:43:28;;;;;;;;;10.00;10.00;;;;;;;;5058329;28;45552;-75
2023/06/19 11:45:54;;;;;;;;;11.00;11.00;;;;;;;;5058789;28;45358;-74
2023/06/19 11:48:26;;;;;;;;;11.00;11.00;;;;;;;;5058819;28;45387;-75
2023/06/19 11:50:52;;;;;;;;;10.00;10.00;;;;;;;;5058595;28;46924;-75
2023/06/19 11:53:18;;;;;;;;;12.33;11.67;;;;;;;;5058145;28;45449;-74
2023/06/19 11:55:43;;;;;;;;;14.00;12.33;;;;;;;;5058633;28;45268;-75
2023/06/19 11:58:09;;;;;;;;;13.33;12.67;;;;;;;;5058481;28;45359;-72
2023/06/19 12:00:36;;;;;;;;;11.33;11.33;;;;;;;;5060000;28;45417;-75
2023/06/19 12:03:01;;;;;;;;;12.00;11.67;;;;;;;;5059791;28;45470;-74
2023/06/19 12:05:26;;;;;;;;;11.00;11.00;;;;;;;;5059745;28;45276;-74
2023/06/19 12:07:51;;;;;;;;;12.00;12.00;;;;;;;;5060029;28;45266;-74
2023/06/19 12:10:16;;;;;;;;;9.33;9.33;;;;;;;;5059840;28;45295;-74
2023/06/19 12:12:42;;;;;;;;;11.00;10.00;;;;;;;;5059876;28;45327;-75
2023/06/19 12:15:07;;;;;;;;;12.67;11.00;;;;;;;;5059526;28;45339;-74
2023/06/19 12:17:32;;;;;;;;;11.67;11.67;;;;;;;;5060013;28;45270;-75
2023/06/19 12:19:58;;;;;;;;;14.00;11.00;;;;;;;;5059715;28;45722;-74
2023/06/19 12:22:23;;;;;;;;;9.67;9.67;;;;;;;;5059557;28;45316;-75
2023/06/19 12:24:48;;;;;;;;;13.00;13.00;;;;;;;;5059532;28;45349;-74
2023/06/19 12:27:13;;;;;;;;;11.00;11.00;;;;;;;;5059905;28;45529;-74
2023/06/19 12:29:38;;;;;;;;;11.33;11.33;;;;;;;;5059309;28;45371;-74
2023/06/19 12:32:04;;;;;;;;;11.67;11.67;;;;;;;;5059551;28;45434;-74
2023/06/19 12:34:29;;;;;;;;;10.00;10.00;;;;;;;;5059618;28;45287;-75
2023/06/19 12:36:54;;;;;;;;;7.33;7.33;;;;;;;;5059609;28;45306;-74
2023/06/19 12:39:20;;;;;;;;;10.67;10.67;;;;;;;;5059170;28;45256;-74
2023/06/19 12:41:45;;;;;;;;;12.67;12.00;;;;;;;;5059172;28;46588;-74
2023/06/19 12:44:10;;;;;;;;;14.00;14.00;;;;;;;;5059192;28;45220;-75
2023/06/19 12:46:36;;;;;;;;;12.67;12.67;;;;;;;;5059535;28;45262;-74
2023/06/19 12:49:01;;;;;;;;;12.00;11.00;;;;;;;;5059420;28;45280;-75
2023/06/19 12:51:26;;;;;;;;;17.00;15.33;;;;;;;;5058957;28;46241;-75
2023/06/19 12:53:51;;;;;;;;;13.00;12.00;;;;;;;;5059399;28;45307;-74
2023/06/19 12:56:16;;;;;;;;;10.00;9.33;;;;;;;;5059485;28;45536;-74
2023/06/19 12:58:42;;;;;;;;;13.00;13.00;;;;;;;;5059074;28;45267;-75
2023/06/19 13:01:07;;;;;;;;;12.00;11.00;;;;;;;;5059138;28;46302;-74
2023/06/19 13:03:32;;;;;;;;;12.00;11.33;;;;;;;;5059146;28;45287;-75
2023/06/19 13:05:57;;;;;;;;;12.33;12.33;;;;;;;;5062696;28;45569;-71
2023/06/19 13:08:22;;;;;;;;;13.00;12.00;;;;;;;;5062605;28;45435;-75
2023/06/19 13:10:47;;;;;;;;;13.33;13.33;;;;;;;;5062518;28;46364;-74
2023/06/19 13:13:13;;;;;;;;;11.33;11.00;;;;;;;;5062538;28;45166;-74
2023/06/19 13:15:38;;;;;;;;;13.00;12.00;;;;;;;;5062766;28;45180;-74
2023/06/19 13:18:03;;;;;;;;;11.67;11.00;;;;;;;;5062511;28;45560;-74
2023/06/19 13:20:28;;;;;;;;;13.00;13.00;;;;;;;;5062359;28;46129;-74
2023/06/19 13:22:53;;;;;;;;;12.00;12.00;;;;;;;;5062400;28;45340;-74
2023/06/19 13:25:19;;;;;;;;;12.67;12.00;;;;;;;;5060991;28;45302;-75
2023/06/19 13:27:45;;;;;;;;;13.33;13.33;;;;;;;;5042240;28;45495;-74
2023/06/19 13:30:10;;;;;;;;;13.67;13.67;;;;;;;;5057487;28;45338;-74
2023/06/19 13:32:36;;;;;;;;;15.33;13.67;;;;;;;;5062399;28;45293;-74
2023/06/19 13:35:01;;;;;;;;;14.33;14.33;;;;;;;;5062422;28;45326;-73
2023/06/19 13:37:26;;;;;;;;;14.00;12.67;;;;;;;;5061964;28;45449;-74
2023/06/19 13:39:51;;;;;;;;;12.67;12.33;;;;;;;;5062284;28;45329;-74
2023/06/19 13:42:16;;;;;;;;;12.33;11.67;;;;;;;;5061930;28;45306;-74
2023/06/19 13:44:42;;;;;;;;;11.00;11.00;;;;;;;;5062075;28;45249;-74
2023/06/19 13:47:07;;;;;;;;;11.33;11.33;;;;;;;;5062093;28;45394;-74
2023/06/19 13:49:32;;;;;;;;;11.00;11.00;;;;;;;;5062070;28;45271;-73
2023/06/19 13:51:57;;;;;;;;;9.67;9.67;;;;;;;;5061984;28;45278;-73
2023/06/19 13:54:22;;;;;;;;;17.33;16.00;;;;;;;;5062184;28;45319;-74
2023/06/19 13:56:48;;;;;;;;;14.33;13.00;;;;;;;;5061892;28;45433;-74
2023/06/19 13:59:14;;;;;;;;;14.00;14.00;;;;;;;;5061905;28;45470;-74
2023/06/19 14:01:41;;;;;;;;;12.33;12.33;;;;;;;;5061826;28;45162;-73
2023/06/19 14:04:06;;;;;;;;;14.33;14.33;;;;;;;;5061962;28;45253;-73
2023/06/19 14:06:31;;;;;;;;;10.67;10.67;;;;;;;;5061711;28;45481;-74
2023/06/19 14:08:56;;;;;;;;;14.67;13.33;;;;;;;;5061773;28;45298;-74
2023/06/19 14:11:21;;;;;;;;;13.33;13.33;;;;;;;;5061670;28;45351;-74